EPWA Airport Information

Runway Information
Runway 11 Length 9186 ft width 164 ft
Elevation 361 ft Threshold 0 ft Heading 115
Runway 29 Length 9186 ft Width 164 ft
Elevation 344 ft Threshold 1640 ft Heading 295
Runway 15 Length 12106 ft width 197 ft
Elevation 351 ft Threshold 0 ft Heading 152
Runway 33 Length 12106 ft Width 197 ft
Elevation 351 ft Threshold 0 ft Heading 332
Airport Frequencies
Type APP Name WARSZAWA A Frequency 128.8 MHZ
Type ATIS Name ATIS Frequency 120.45 MHZ
Type CLD Name CLNC DEL Frequency 121.6 MHZ
Type DIR Name WARSZAWA D Frequency 129.375 MHZ
Type GND Name GND Frequency 121.9 MHZ
Type TWR Name TWR Frequency 118.3 MHZ
Airport Navaids
Type VOR-DME Name Okecie Frequency 113400 KHZ
Type NDB Name Piaseczno Frequency 330 KHZ
Type NDB Name Warszawa Frequency 336 KHZ
Type NDB Name Warszawa Frequency 412 KHZ
Type VOR-DME Name Zaborowek Frequency 114900 KHZ
Airport Weather Information & NOTAM
ADDS - METARS form results

(1123 UTC 28 September 2020)
Data provider http://aviationweather.gov/metar/data/
 
METAR text: EPWA 281100Z 13006KT CAVOK 15/07 Q1016 NOSIG
Conditions at: EPWA (WARSAW/OKECIE , PL) observed 1100 UTC 28 September 2020
Temperature: 15.0°C (59°F)
Dewpoint: 7.0°C (45°F) [RH = 59%]
Pressure (altimeter): 30.00 inches Hg (1016.0 mb)
Winds: from the SE (130 degrees) at 7 MPH (6 knots; 3.1 m/s)
Visibility: 6 or more miles (10+ km)
Ceiling: ceiling and visibility are OK
Clouds: unknown
Weather: no significant weather observed at this time

METAR text: EPWA 281030Z 12009KT 9999 FEW028 14/08 Q1016 NOSIG
Conditions at: EPWA (WARSAW/OKECIE , PL) observed 1030 UTC 28 September 2020
Temperature: 14.0°C (57°F)
Dewpoint: 8.0°C (46°F) [RH = 67%]
Pressure (altimeter): 30.00 inches Hg (1016.0 mb)
Winds: from the ESE (120 degrees) at 10 MPH (9 knots; 4.6 m/s)
Visibility: 6 or more miles (10+ km)
Ceiling: at least 12,000 feet AGL
Clouds: few clouds at 2800 feet AGL
Weather: no significant weather observed at this time

Forecast for: EPWA (WARSAW/OKECIE , PL)
Text: TAF EPWA 280830Z 2809/2909 10007KT CAVOK
Forecast period: 0900 UTC 28 September 2020 to 0900 UTC 29 September 2020
Forecast type: FROM: standard forecast or significant change
Winds: from the E (100 degrees) at 8 MPH (7 knots; 3.6 m/s)
Visibility: 6 or more miles (10+ km)
Ceiling: unknown
Clouds: missing
Weather: NSW  (no significant weather)